sensor_id;sensor_type;location;lat;lon;timestamp;P1;durP1;ratioP1;P2;durP2;ratioP2
35847;SDS011;22332;51.954;20.118;2023-06-22T00:01:57;17.10;;;15.20;;
35847;SDS011;22332;51.954;20.118;2023-06-22T00:05:02;18.10;;;16.20;;
35847;SDS011;22332;51.954;20.118;2023-06-22T00:08:09;17.90;;;16.00;;
35847;SDS011;22332;51.954;20.118;2023-06-22T00:11:14;17.20;;;15.30;;
35847;SDS011;22332;51.954;20.118;2023-06-22T00:14:20;18.60;;;16.50;;
35847;SDS011;22332;51.954;20.118;2023-06-22T00:17:25;16.90;;;15.30;;
35847;SDS011;22332;51.954;20.118;2023-06-22T00:20:31;17.00;;;15.20;;
35847;SDS011;22332;51.954;20.118;2023-06-22T00:23:39;16.70;;;14.90;;
35847;SDS011;22332;51.954;20.118;2023-06-22T00:26:46;14.70;;;13.20;;
35847;SDS011;22332;51.954;20.118;2023-06-22T00:29:52;16.30;;;14.10;;
35847;SDS011;22332;51.954;20.118;2023-06-22T00:32:58;16.50;;;14.90;;
35847;SDS011;22332;51.954;20.118;2023-06-22T00:36:04;17.10;;;15.40;;
35847;SDS011;22332;51.954;20.118;2023-06-22T00:39:10;18.00;;;15.50;;
35847;SDS011;22332;51.954;20.118;2023-06-22T00:42:16;15.10;;;13.50;;
35847;SDS011;22332;51.954;20.118;2023-06-22T00:45:23;14.30;;;12.80;;
35847;SDS011;22332;51.954;20.118;2023-06-22T00:48:29;15.30;;;13.70;;
35847;SDS011;22332;51.954;20.118;2023-06-22T00:51:37;17.90;;;16.00;;
35847;SDS011;22332;51.954;20.118;2023-06-22T00:57:53;25.90;;;23.10;;
35847;SDS011;22332;51.954;20.118;2023-06-22T01:00:59;24.60;;;22.00;;
35847;SDS011;22332;51.954;20.118;2023-06-22T01:04:05;23.20;;;20.80;;
35847;SDS011;22332;51.954;20.118;2023-06-22T01:07:13;25.90;;;22.90;;
35847;SDS011;22332;51.954;20.118;2023-06-22T01:10:30;28.90;;;25.40;;
35847;SDS011;22332;51.954;20.118;2023-06-22T01:13:45;29.50;;;26.40;;
35847;SDS011;22332;51.954;20.118;2023-06-22T01:16:58;29.10;;;26.00;;
35847;SDS011;22332;51.954;20.118;2023-06-22T01:20:06;28.90;;;25.60;;
35847;SDS011;22332;51.954;20.118;2023-06-22T01:23:20;28.70;;;25.60;;
35847;SDS011;22332;51.954;20.118;2023-06-22T01:26:36;27.90;;;25.00;;
35847;SDS011;22332;51.954;20.118;2023-06-22T01:29:46;25.00;;;22.30;;
35847;SDS011;22332;51.954;20.118;2023-06-22T01:32:53;27.00;;;24.00;;
35847;SDS011;22332;51.954;20.118;2023-06-22T01:36:02;26.10;;;23.50;;
35847;SDS011;22332;51.954;20.118;2023-06-22T01:39:09;28.70;;;25.70;;
35847;SDS011;22332;51.954;20.118;2023-06-22T01:42:15;27.10;;;24.20;;
35847;SDS011;22332;51.954;20.118;2023-06-22T01:45:21;28.00;;;24.20;;
35847;SDS011;22332;51.954;20.118;2023-06-22T01:48:28;27.90;;;25.00;;
35847;SDS011;22332;51.954;20.118;2023-06-22T01:51:34;29.60;;;25.70;;
35847;SDS011;22332;51.954;20.118;2023-06-22T01:54:40;25.70;;;22.80;;
35847;SDS011;22332;51.954;20.118;2023-06-22T01:57:45;24.70;;;21.70;;
35847;SDS011;22332;51.954;20.118;2023-06-22T02:00:53;26.10;;;23.30;;
35847;SDS011;22332;51.954;20.118;2023-06-22T02:04:03;26.50;;;23.80;;
35847;SDS011;22332;51.954;20.118;2023-06-22T02:07:17;25.60;;;23.00;;
35847;SDS011;22332;51.954;20.118;2023-06-22T02:10:25;25.30;;;22.50;;
35847;SDS011;22332;51.954;20.118;2023-06-22T02:13:34;25.70;;;21.70;;
35847;SDS011;22332;51.954;20.118;2023-06-22T02:16:40;24.30;;;21.00;;
35847;SDS011;22332;51.954;20.118;2023-06-22T02:19:47;23.90;;;21.40;;
35847;SDS011;22332;51.954;20.118;2023-06-22T02:22:52;24.20;;;21.40;;
35847;SDS011;22332;51.954;20.118;2023-06-22T02:25:58;24.80;;;21.60;;
35847;SDS011;22332;51.954;20.118;2023-06-22T02:29:05;21.50;;;19.20;;
35847;SDS011;22332;51.954;20.118;2023-06-22T02:32:11;23.00;;;20.10;;
35847;SDS011;22332;51.954;20.118;2023-06-22T02:35:18;21.80;;;19.50;;
35847;SDS011;22332;51.954;20.118;2023-06-22T02:38:24;23.20;;;19.90;;
35847;SDS011;22332;51.954;20.118;2023-06-22T02:41:30;19.50;;;17.40;;
35847;SDS011;22332;51.954;20.118;2023-06-22T02:44:35;22.50;;;19.20;;
35847;SDS011;22332;51.954;20.118;2023-06-22T02:47:41;21.90;;;19.60;;
35847;SDS011;22332;51.954;20.118;2023-06-22T02:50:46;20.20;;;17.50;;
35847;SDS011;22332;51.954;20.118;2023-06-22T02:53:52;20.10;;;18.00;;
35847;SDS011;22332;51.954;20.118;2023-06-22T02:57:00;21.40;;;18.90;;
35847;SDS011;22332;51.954;20.118;2023-06-22T03:00:08;22.50;;;20.10;;
35847;SDS011;22332;51.954;20.118;2023-06-22T03:03:20;22.90;;;19.60;;
35847;SDS011;22332;51.954;20.118;2023-06-22T03:06:29;20.80;;;18.30;;
35847;SDS011;22332;51.954;20.118;2023-06-22T03:09:34;21.80;;;19.50;;
35847;SDS011;22332;51.954;20.118;2023-06-22T03:12:40;21.00;;;18.70;;
35847;SDS011;22332;51.954;20.118;2023-06-22T03:15:46;20.00;;;17.30;;
35847;SDS011;22332;51.954;20.118;2023-06-22T03:18:52;18.40;;;16.40;;
35847;SDS011;22332;51.954;20.118;2023-06-22T03:21:58;20.10;;;17.80;;
35847;SDS011;22332;51.954;20.118;2023-06-22T03:25:05;20.70;;;18.40;;
35847;SDS011;22332;51.954;20.118;2023-06-22T03:28:16;18.90;;;16.60;;
35847;SDS011;22332;51.954;20.118;2023-06-22T03:31:22;18.20;;;16.10;;
35847;SDS011;22332;51.954;20.118;2023-06-22T03:34:29;18.30;;;16.30;;
35847;SDS011;22332;51.954;20.118;2023-06-22T03:37:37;17.60;;;15.80;;
35847;SDS011;22332;51.954;20.118;2023-06-22T03:40:42;19.30;;;17.20;;
35847;SDS011;22332;51.954;20.118;2023-06-22T03:43:48;18.50;;;16.20;;
35847;SDS011;22332;51.954;20.118;2023-06-22T03:46:53;17.40;;;15.50;;
35847;SDS011;22332;51.954;20.118;2023-06-22T03:49:59;16.90;;;15.10;;
35847;SDS011;22332;51.954;20.118;2023-06-22T03:53:06;17.00;;;15.30;;
35847;SDS011;22332;51.954;20.118;2023-06-22T03:56:11;18.80;;;15.40;;
35847;SDS011;22332;51.954;20.118;2023-06-22T03:59:22;16.00;;;14.30;;
35847;SDS011;22332;51.954;20.118;2023-06-22T04:02:28;17.90;;;16.10;;
35847;SDS011;22332;51.954;20.118;2023-06-22T04:05:34;16.90;;;15.20;;
35847;SDS011;22332;51.954;20.118;2023-06-22T04:08:39;16.90;;;14.50;;
35847;SDS011;22332;51.954;20.118;2023-06-22T04:11:45;16.10;;;14.00;;
35847;SDS011;22332;51.954;20.118;2023-06-22T04:14:50;15.80;;;14.30;;
35847;SDS011;22332;51.954;20.118;2023-06-22T04:17:56;16.90;;;15.20;;
35847;SDS011;22332;51.954;20.118;2023-06-22T04:21:02;15.50;;;13.80;;
35847;SDS011;22332;51.954;20.118;2023-06-22T04:24:09;15.40;;;13.70;;
35847;SDS011;22332;51.954;20.118;2023-06-22T04:27:15;15.30;;;13.80;;
35847;SDS011;22332;51.954;20.118;2023-06-22T04:30:22;15.80;;;14.10;;
35847;SDS011;22332;51.954;20.118;2023-06-22T04:33:28;15.90;;;14.10;;
35847;SDS011;22332;51.954;20.118;2023-06-22T04:36:35;15.00;;;12.70;;
35847;SDS011;22332;51.954;20.118;2023-06-22T04:39:43;13.70;;;12.30;;
35847;SDS011;22332;51.954;20.118;2023-06-22T04:42:48;18.20;;;13.90;;
35847;SDS011;22332;51.954;20.118;2023-06-22T04:45:56;15.00;;;13.30;;
35847;SDS011;22332;51.954;20.118;2023-06-22T04:49:06;14.50;;;13.00;;
35847;SDS011;22332;51.954;20.118;2023-06-22T04:52:13;14.80;;;13.30;;
35847;SDS011;22332;51.954;20.118;2023-06-22T04:55:20;13.70;;;12.30;;
35847;SDS011;22332;51.954;20.118;2023-06-22T04:58:28;13.60;;;12.30;;
35847;SDS011;22332;51.954;20.118;2023-06-22T05:01:35;15.20;;;13.00;;
35847;SDS011;22332;51.954;20.118;2023-06-22T05:04:40;14.90;;;13.40;;
35847;SDS011;22332;51.954;20.118;2023-06-22T05:07:46;13.90;;;12.40;;
35847;SDS011;22332;51.954;20.118;2023-06-22T05:10:55;14.60;;;12.40;;
35847;SDS011;22332;51.954;20.118;2023-06-22T05:14:01;14.00;;;12.70;;
35847;SDS011;22332;51.954;20.118;2023-06-22T05:17:07;13.50;;;12.20;;
35847;SDS011;22332;51.954;20.118;2023-06-22T05:20:16;13.40;;;12.00;;
35847;SDS011;22332;51.954;20.118;2023-06-22T05:23:22;14.10;;;12.30;;
35847;SDS011;22332;51.954;20.118;2023-06-22T05:26:27;14.20;;;12.10;;
35847;SDS011;22332;51.954;20.118;2023-06-22T05:29:33;13.40;;;12.10;;
35847;SDS011;22332;51.954;20.118;2023-06-22T05:32:39;12.60;;;11.40;;
35847;SDS011;22332;51.954;20.118;2023-06-22T05:35:46;13.40;;;12.00;;
35847;SDS011;22332;51.954;20.118;2023-06-22T05:38:52;12.30;;;11.10;;
35847;SDS011;22332;51.954;20.118;2023-06-22T05:42:00;13.90;;;12.50;;
35847;SDS011;22332;51.954;20.118;2023-06-22T05:45:07;14.70;;;12.00;;
35847;SDS011;22332;51.954;20.118;2023-06-22T05:48:13;13.90;;;12.30;;
35847;SDS011;22332;51.954;20.118;2023-06-22T05:51:19;11.70;;;10.50;;
35847;SDS011;22332;51.954;20.118;2023-06-22T05:54:24;11.10;;;9.90;;
35847;SDS011;22332;51.954;20.118;2023-06-22T05:57:31;16.40;;;11.40;;
35847;SDS011;22332;51.954;20.118;2023-06-22T06:00:36;12.80;;;11.50;;
35847;SDS011;22332;51.954;20.118;2023-06-22T06:03:42;12.10;;;10.70;;
35847;SDS011;22332;51.954;20.118;2023-06-22T06:06:47;11.20;;;9.80;;
35847;SDS011;22332;51.954;20.118;2023-06-22T06:09:53;12.30;;;10.00;;
35847;SDS011;22332;51.954;20.118;2023-06-22T06:12:58;12.80;;;11.10;;
35847;SDS011;22332;51.954;20.118;2023-06-22T06:16:06;12.10;;;10.50;;
35847;SDS011;22332;51.954;20.118;2023-06-22T06:19:12;11.90;;;10.30;;
35847;SDS011;22332;51.954;20.118;2023-06-22T06:22:17;12.80;;;11.50;;
35847;SDS011;22332;51.954;20.118;2023-06-22T06:25:24;11.00;;;9.60;;
35847;SDS011;22332;51.954;20.118;2023-06-22T06:28:29;11.70;;;8.70;;
35847;SDS011;22332;51.954;20.118;2023-06-22T06:31:35;11.10;;;9.40;;
35847;SDS011;22332;51.954;20.118;2023-06-22T06:34:40;11.00;;;9.70;;
35847;SDS011;22332;51.954;20.118;2023-06-22T06:37:46;12.20;;;9.90;;
35847;SDS011;22332;51.954;20.118;2023-06-22T06:40:53;10.80;;;8.80;;
35847;SDS011;22332;51.954;20.118;2023-06-22T06:43:58;11.90;;;9.30;;
35847;SDS011;22332;51.954;20.118;2023-06-22T06:47:04;9.80;;;8.80;;
35847;SDS011;22332;51.954;20.118;2023-06-22T06:50:11;9.90;;;9.00;;
35847;SDS011;22332;51.954;20.118;2023-06-22T06:53:16;10.70;;;9.30;;
35847;SDS011;22332;51.954;20.118;2023-06-22T06:56:22;10.00;;;9.00;;
35847;SDS011;22332;51.954;20.118;2023-06-22T06:59:27;10.10;;;8.60;;
35847;SDS011;22332;51.954;20.118;2023-06-22T07:02:33;11.70;;;9.10;;
35847;SDS011;22332;51.954;20.118;2023-06-22T07:05:39;10.40;;;9.40;;
35847;SDS011;22332;51.954;20.118;2023-06-22T07:08:45;9.90;;;8.90;;
35847;SDS011;22332;51.954;20.118;2023-06-22T07:11:50;9.30;;;7.20;;
35847;SDS011;22332;51.954;20.118;2023-06-22T07:14:57;9.70;;;7.50;;
35847;SDS011;22332;51.954;20.118;2023-06-22T07:18:06;10.60;;;7.10;;
35847;SDS011;22332;51.954;20.118;2023-06-22T07:21:12;11.10;;;7.90;;
35847;SDS011;22332;51.954;20.118;2023-06-22T07:24:18;8.50;;;7.00;;
35847;SDS011;22332;51.954;20.118;2023-06-22T07:27:23;7.60;;;6.00;;
35847;SDS011;22332;51.954;20.118;2023-06-22T07:30:29;7.10;;;6.00;;
35847;SDS011;22332;51.954;20.118;2023-06-22T07:33:35;6.40;;;5.10;;
35847;SDS011;22332;51.954;20.118;2023-06-22T07:36:41;6.20;;;5.40;;
35847;SDS011;22332;51.954;20.118;2023-06-22T07:39:46;7.90;;;4.60;;
35847;SDS011;22332;51.954;20.118;2023-06-22T07:42:53;4.60;;;4.20;;
35847;SDS011;22332;51.954;20.118;2023-06-22T07:45:58;6.70;;;6.10;;
35847;SDS011;22332;51.954;20.118;2023-06-22T07:49:04;7.10;;;5.50;;
35847;SDS011;22332;51.954;20.118;2023-06-22T07:52:10;5.00;;;4.20;;
35847;SDS011;22332;51.954;20.118;2023-06-22T07:55:16;4.70;;;3.00;;
35847;SDS011;22332;51.954;20.118;2023-06-22T07:58:22;6.80;;;3.60;;
35847;SDS011;22332;51.954;20.118;2023-06-22T08:01:28;6.80;;;5.10;;
35847;SDS011;22332;51.954;20.118;2023-06-22T08:04:33;5.30;;;4.80;;
35847;SDS011;22332;51.954;20.118;2023-06-22T08:07:39;4.00;;;3.60;;
35847;SDS011;22332;51.954;20.118;2023-06-22T08:10:47;5.50;;;3.80;;
35847;SDS011;22332;51.954;20.118;2023-06-22T08:13:53;3.90;;;3.50;;
35847;SDS011;22332;51.954;20.118;2023-06-22T08:17:00;6.00;;;3.60;;
35847;SDS011;22332;51.954;20.118;2023-06-22T08:20:07;6.10;;;3.60;;
35847;SDS011;22332;51.954;20.118;2023-06-22T08:23:14;5.10;;;3.40;;
35847;SDS011;22332;51.954;20.118;2023-06-22T08:26:20;4.30;;;3.70;;
35847;SDS011;22332;51.954;20.118;2023-06-22T08:29:26;4.20;;;3.40;;
35847;SDS011;22332;51.954;20.118;2023-06-22T08:32:31;4.50;;;3.60;;
35847;SDS011;22332;51.954;20.118;2023-06-22T08:35:37;3.30;;;2.70;;
35847;SDS011;22332;51.954;20.118;2023-06-22T08:38:42;3.10;;;2.80;;
35847;SDS011;22332;51.954;20.118;2023-06-22T08:41:53;5.30;;;2.60;;
35847;SDS011;22332;51.954;20.118;2023-06-22T08:44:58;4.20;;;2.60;;
35847;SDS011;22332;51.954;20.118;2023-06-22T08:48:04;5.00;;;3.00;;
35847;SDS011;22332;51.954;20.118;2023-06-22T08:51:10;4.70;;;2.70;;
35847;SDS011;22332;51.954;20.118;2023-06-22T08:54:16;3.30;;;2.90;;
35847;SDS011;22332;51.954;20.118;2023-06-22T08:57:22;2.70;;;2.50;;
35847;SDS011;22332;51.954;20.118;2023-06-22T09:00:27;6.50;;;2.80;;
35847;SDS011;22332;51.954;20.118;2023-06-22T09:03:35;4.50;;;3.10;;
35847;SDS011;22332;51.954;20.118;2023-06-22T09:06:41;4.20;;;3.10;;
35847;SDS011;22332;51.954;20.118;2023-06-22T09:09:48;3.60;;;3.10;;
35847;SDS011;22332;51.954;20.118;2023-06-22T09:12:54;6.70;;;3.80;;
35847;SDS011;22332;51.954;20.118;2023-06-22T09:16:00;4.70;;;3.10;;
35847;SDS011;22332;51.954;20.118;2023-06-22T09:19:08;7.00;;;3.60;;
35847;SDS011;22332;51.954;20.118;2023-06-22T09:22:13;4.30;;;3.60;;
35847;SDS011;22332;51.954;20.118;2023-06-22T09:25:19;5.30;;;3.40;;
35847;SDS011;22332;51.954;20.118;2023-06-22T09:28:25;5.20;;;3.60;;
35847;SDS011;22332;51.954;20.118;2023-06-22T09:31:30;3.90;;;3.50;;
35847;SDS011;22332;51.954;20.118;2023-06-22T09:34:36;3.80;;;3.30;;
35847;SDS011;22332;51.954;20.118;2023-06-22T09:37:41;4.30;;;3.00;;
35847;SDS011;22332;51.954;20.118;2023-06-22T09:40:47;3.60;;;3.10;;
35847;SDS011;22332;51.954;20.118;2023-06-22T09:43:53;4.30;;;3.10;;
35847;SDS011;22332;51.954;20.118;2023-06-22T09:46:59;4.70;;;3.30;;
35847;SDS011;22332;51.954;20.118;2023-06-22T09:50:05;4.10;;;2.90;;
35847;SDS011;22332;51.954;20.118;2023-06-22T09:53:12;4.10;;;3.00;;
35847;SDS011;22332;51.954;20.118;2023-06-22T09:56:17;3.90;;;3.30;;
35847;SDS011;22332;51.954;20.118;2023-06-22T09:59:23;4.40;;;3.00;;
35847;SDS011;22332;51.954;20.118;2023-06-22T10:02:28;3.40;;;2.80;;
35847;SDS011;22332;51.954;20.118;2023-06-22T10:05:34;8.30;;;3.10;;
35847;SDS011;22332;51.954;20.118;2023-06-22T10:08:39;7.80;;;3.10;;
35847;SDS011;22332;51.954;20.118;2023-06-22T10:11:45;3.10;;;2.80;;
35847;SDS011;22332;51.954;20.118;2023-06-22T10:14:50;4.40;;;3.40;;
35847;SDS011;22332;51.954;20.118;2023-06-22T10:17:56;3.40;;;3.10;;
35847;SDS011;22332;51.954;20.118;2023-06-22T10:21:02;3.00;;;2.60;;
35847;SDS011;22332;51.954;20.118;2023-06-22T10:24:07;4.10;;;3.00;;
35847;SDS011;22332;51.954;20.118;2023-06-22T10:27:14;5.90;;;3.70;;
35847;SDS011;22332;51.954;20.118;2023-06-22T10:30:29;3.70;;;3.10;;
35847;SDS011;22332;51.954;20.118;2023-06-22T10:33:35;3.30;;;2.60;;
35847;SDS011;22332;51.954;20.118;2023-06-22T10:36:40;3.60;;;2.70;;
35847;SDS011;22332;51.954;20.118;2023-06-22T10:39:49;3.50;;;2.90;;
35847;SDS011;22332;51.954;20.118;2023-06-22T10:42:54;3.00;;;2.70;;
35847;SDS011;22332;51.954;20.118;2023-06-22T10:46:00;4.50;;;2.30;;
35847;SDS011;22332;51.954;20.118;2023-06-22T10:49:05;3.20;;;2.70;;
35847;SDS011;22332;51.954;20.118;2023-06-22T10:52:11;3.20;;;2.80;;
35847;SDS011;22332;51.954;20.118;2023-06-22T10:55:16;5.00;;;2.50;;
35847;SDS011;22332;51.954;20.118;2023-06-22T10:58:22;3.80;;;3.30;;
35847;SDS011;22332;51.954;20.118;2023-06-22T11:01:28;4.50;;;2.70;;
35847;SDS011;22332;51.954;20.118;2023-06-22T11:04:36;2.90;;;2.50;;
35847;SDS011;22332;51.954;20.118;2023-06-22T11:07:45;2.90;;;2.60;;
35847;SDS011;22332;51.954;20.118;2023-06-22T11:10:52;3.10;;;2.80;;
35847;SDS011;22332;51.954;20.118;2023-06-22T11:13:57;3.00;;;2.70;;
35847;SDS011;22332;51.954;20.118;2023-06-22T11:17:03;4.70;;;3.00;;
35847;SDS011;22332;51.954;20.118;2023-06-22T11:20:10;3.10;;;2.80;;
35847;SDS011;22332;51.954;20.118;2023-06-22T11:23:16;4.80;;;3.20;;
35847;SDS011;22332;51.954;20.118;2023-06-22T11:26:22;5.60;;;2.80;;
35847;SDS011;22332;51.954;20.118;2023-06-22T11:29:27;3.30;;;3.00;;
35847;SDS011;22332;51.954;20.118;2023-06-22T11:32:33;3.70;;;3.10;;
35847;SDS011;22332;51.954;20.118;2023-06-22T11:35:42;3.20;;;2.90;;
35847;SDS011;22332;51.954;20.118;2023-06-22T11:38:48;3.80;;;3.10;;
35847;SDS011;22332;51.954;20.118;2023-06-22T11:41:54;3.40;;;3.10;;
35847;SDS011;22332;51.954;20.118;2023-06-22T11:44:59;3.60;;;2.80;;
35847;SDS011;22332;51.954;20.118;2023-06-22T11:48:07;3.50;;;2.80;;
35847;SDS011;22332;51.954;20.118;2023-06-22T11:51:15;3.30;;;2.80;;
35847;SDS011;22332;51.954;20.118;2023-06-22T11:54:20;3.10;;;2.80;;
35847;SDS011;22332;51.954;20.118;2023-06-22T11:57:26;4.00;;;2.70;;
35847;SDS011;22332;51.954;20.118;2023-06-22T12:00:31;3.30;;;3.00;;
35847;SDS011;22332;51.954;20.118;2023-06-22T12:03:37;5.40;;;3.20;;
35847;SDS011;22332;51.954;20.118;2023-06-22T12:06:42;4.00;;;3.10;;
35847;SDS011;22332;51.954;20.118;2023-06-22T12:09:48;3.00;;;2.60;;
35847;SDS011;22332;51.954;20.118;2023-06-22T12:12:53;3.30;;;2.50;;
35847;SDS011;22332;51.954;20.118;2023-06-22T12:16:02;2.90;;;2.30;;
35847;SDS011;22332;51.954;20.118;2023-06-22T12:19:08;2.80;;;2.30;;
35847;SDS011;22332;51.954;20.118;2023-06-22T12:22:14;2.70;;;2.10;;
35847;SDS011;22332;51.954;20.118;2023-06-22T12:25:19;5.70;;;2.50;;
35847;SDS011;22332;51.954;20.118;2023-06-22T12:28:25;4.80;;;2.40;;
35847;SDS011;22332;51.954;20.118;2023-06-22T12:31:31;2.80;;;2.40;;
35847;SDS011;22332;51.954;20.118;2023-06-22T12:34:36;3.00;;;2.40;;
35847;SDS011;22332;51.954;20.118;2023-06-22T12:37:42;3.20;;;2.70;;
35847;SDS011;22332;51.954;20.118;2023-06-22T12:40:47;2.60;;;2.40;;
35847;SDS011;22332;51.954;20.118;2023-06-22T12:43:53;3.20;;;2.60;;
35847;SDS011;22332;51.954;20.118;2023-06-22T12:46:58;3.20;;;2.60;;
35847;SDS011;22332;51.954;20.118;2023-06-22T12:50:05;3.90;;;2.60;;
35847;SDS011;22332;51.954;20.118;2023-06-22T12:53:11;3.10;;;2.60;;
35847;SDS011;22332;51.954;20.118;2023-06-22T12:56:17;3.30;;;2.40;;
35847;SDS011;22332;51.954;20.118;2023-06-22T12:59:22;2.80;;;2.50;;
35847;SDS011;22332;51.954;20.118;2023-06-22T13:02:28;2.70;;;2.50;;
35847;SDS011;22332;51.954;20.118;2023-06-22T13:05:33;4.80;;;2.70;;
35847;SDS011;22332;51.954;20.118;2023-06-22T13:08:39;4.30;;;3.00;;
35847;SDS011;22332;51.954;20.118;2023-06-22T13:11:45;3.80;;;2.80;;
35847;SDS011;22332;51.954;20.118;2023-06-22T13:14:50;3.90;;;2.90;;
35847;SDS011;22332;51.954;20.118;2023-06-22T13:17:57;3.10;;;2.80;;
35847;SDS011;22332;51.954;20.118;2023-06-22T13:21:03;3.90;;;3.30;;
35847;SDS011;22332;51.954;20.118;2023-06-22T13:24:08;4.00;;;3.10;;
35847;SDS011;22332;51.954;20.118;2023-06-22T13:27:14;3.90;;;3.10;;
35847;SDS011;22332;51.954;20.118;2023-06-22T13:30:19;4.10;;;2.70;;
35847;SDS011;22332;51.954;20.118;2023-06-22T13:33:25;3.40;;;3.10;;
35847;SDS011;22332;51.954;20.118;2023-06-22T13:36:30;5.20;;;3.20;;
35847;SDS011;22332;51.954;20.118;2023-06-22T13:39:36;3.80;;;2.60;;
35847;SDS011;22332;51.954;20.118;2023-06-22T13:42:41;2.90;;;2.60;;
35847;SDS011;22332;51.954;20.118;2023-06-22T13:45:47;3.30;;;3.00;;
35847;SDS011;22332;51.954;20.118;2023-06-22T13:48:52;6.70;;;3.40;;
35847;SDS011;22332;51.954;20.118;2023-06-22T13:51:58;3.60;;;2.70;;
35847;SDS011;22332;51.954;20.118;2023-06-22T13:55:06;3.00;;;2.50;;
35847;SDS011;22332;51.954;20.118;2023-06-22T13:58:13;3.10;;;2.60;;
35847;SDS011;22332;51.954;20.118;2023-06-22T14:01:19;2.80;;;2.50;;
35847;SDS011;22332;51.954;20.118;2023-06-22T14:04:24;3.50;;;2.50;;
35847;SDS011;22332;51.954;20.118;2023-06-22T14:07:31;5.50;;;2.70;;
35847;SDS011;22332;51.954;20.118;2023-06-22T14:10:37;4.70;;;2.90;;
35847;SDS011;22332;51.954;20.118;2023-06-22T14:13:42;3.00;;;2.40;;
35847;SDS011;22332;51.954;20.118;2023-06-22T14:16:48;3.90;;;2.40;;
35847;SDS011;22332;51.954;20.118;2023-06-22T14:19:53;2.50;;;2.30;;
35847;SDS011;22332;51.954;20.118;2023-06-22T14:22:59;2.80;;;2.00;;
35847;SDS011;22332;51.954;20.118;2023-06-22T14:26:04;2.60;;;2.40;;
35847;SDS011;22332;51.954;20.118;2023-06-22T14:29:10;2.80;;;2.50;;
35847;SDS011;22332;51.954;20.118;2023-06-22T14:32:15;3.90;;;2.70;;
35847;SDS011;22332;51.954;20.118;2023-06-22T14:35:21;2.40;;;2.20;;
35847;SDS011;22332;51.954;20.118;2023-06-22T14:38:27;2.60;;;2.40;;
35847;SDS011;22332;51.954;20.118;2023-06-22T14:41:36;3.80;;;2.40;;
35847;SDS011;22332;51.954;20.118;2023-06-22T14:44:42;2.60;;;2.40;;
35847;SDS011;22332;51.954;20.118;2023-06-22T14:47:47;6.00;;;2.80;;
35847;SDS011;22332;51.954;20.118;2023-06-22T14:50:53;2.80;;;2.60;;
35847;SDS011;22332;51.954;20.118;2023-06-22T14:53:58;3.10;;;2.80;;
35847;SDS011;22332;51.954;20.118;2023-06-22T14:57:04;2.60;;;2.30;;
35847;SDS011;22332;51.954;20.118;2023-06-22T15:00:10;3.60;;;2.80;;
35847;SDS011;22332;51.954;20.118;2023-06-22T15:03:17;3.80;;;2.80;;
35847;SDS011;22332;51.954;20.118;2023-06-22T15:06:28;6.30;;;2.70;;
35847;SDS011;22332;51.954;20.118;2023-06-22T15:09:33;3.10;;;2.80;;
35847;SDS011;22332;51.954;20.118;2023-06-22T15:12:41;3.20;;;2.90;;
35847;SDS011;22332;51.954;20.118;2023-06-22T15:15:47;4.00;;;2.80;;
35847;SDS011;22332;51.954;20.118;2023-06-22T15:18:54;3.20;;;2.70;;
35847;SDS011;22332;51.954;20.118;2023-06-22T15:21:59;3.20;;;2.60;;
35847;SDS011;22332;51.954;20.118;2023-06-22T15:25:06;3.60;;;2.90;;
35847;SDS011;22332;51.954;20.118;2023-06-22T15:28:13;4.60;;;2.70;;
35847;SDS011;22332;51.954;20.118;2023-06-22T15:31:19;3.60;;;2.60;;
35847;SDS011;22332;51.954;20.118;2023-06-22T15:34:24;3.80;;;2.60;;
35847;SDS011;22332;51.954;20.118;2023-06-22T15:37:30;2.50;;;2.20;;
35847;SDS011;22332;51.954;20.118;2023-06-22T15:40:35;2.80;;;2.60;;
35847;SDS011;22332;51.954;20.118;2023-06-22T15:43:40;2.90;;;2.60;;
35847;SDS011;22332;51.954;20.118;2023-06-22T15:46:46;3.00;;;2.50;;
35847;SDS011;22332;51.954;20.118;2023-06-22T15:49:52;3.00;;;2.60;;
35847;SDS011;22332;51.954;20.118;2023-06-22T15:53:00;3.80;;;2.50;;
35847;SDS011;22332;51.954;20.118;2023-06-22T15:56:05;2.90;;;2.50;;
35847;SDS011;22332;51.954;20.118;2023-06-22T15:59:12;3.20;;;2.50;;
35847;SDS011;22332;51.954;20.118;2023-06-22T16:02:18;2.70;;;2.30;;
35847;SDS011;22332;51.954;20.118;2023-06-22T16:05:24;2.90;;;2.50;;
35847;SDS011;22332;51.954;20.118;2023-06-22T16:08:31;3.30;;;2.50;;
35847;SDS011;22332;51.954;20.118;2023-06-22T16:11:37;2.80;;;2.30;;
35847;SDS011;22332;51.954;20.118;2023-06-22T16:14:45;2.50;;;2.30;;
35847;SDS011;22332;51.954;20.118;2023-06-22T16:17:51;3.00;;;2.40;;
35847;SDS011;22332;51.954;20.118;2023-06-22T16:20:56;3.90;;;2.40;;
35847;SDS011;22332;51.954;20.118;2023-06-22T16:24:02;2.80;;;2.50;;
35847;SDS011;22332;51.954;20.118;2023-06-22T16:27:10;2.60;;;2.40;;
35847;SDS011;22332;51.954;20.118;2023-06-22T16:30:16;4.40;;;3.00;;
35847;SDS011;22332;51.954;20.118;2023-06-22T16:33:21;3.10;;;2.70;;
35847;SDS011;22332;51.954;20.118;2023-06-22T16:36:28;3.50;;;2.70;;
35847;SDS011;22332;51.954;20.118;2023-06-22T16:39:33;3.40;;;2.60;;
35847;SDS011;22332;51.954;20.118;2023-06-22T16:42:39;2.90;;;2.70;;
35847;SDS011;22332;51.954;20.118;2023-06-22T16:45:48;3.40;;;2.60;;
35847;SDS011;22332;51.954;20.118;2023-06-22T16:48:53;6.20;;;3.10;;
35847;SDS011;22332;51.954;20.118;2023-06-22T16:51:59;3.20;;;2.70;;
35847;SDS011;22332;51.954;20.118;2023-06-22T16:55:04;5.00;;;3.50;;
35847;SDS011;22332;51.954;20.118;2023-06-22T16:58:12;5.60;;;4.60;;
35847;SDS011;22332;51.954;20.118;2023-06-22T17:01:20;5.30;;;4.40;;
35847;SDS011;22332;51.954;20.118;2023-06-22T17:04:27;6.00;;;4.80;;
35847;SDS011;22332;51.954;20.118;2023-06-22T17:07:36;5.20;;;3.90;;
35847;SDS011;22332;51.954;20.118;2023-06-22T17:10:47;13.90;;;9.90;;
35847;SDS011;22332;51.954;20.118;2023-06-22T17:13:53;6.20;;;4.30;;
35847;SDS011;22332;51.954;20.118;2023-06-22T17:17:03;6.10;;;3.40;;
35847;SDS011;22332;51.954;20.118;2023-06-22T17:20:09;4.70;;;3.20;;
35847;SDS011;22332;51.954;20.118;2023-06-22T17:23:15;3.20;;;2.90;;
35847;SDS011;22332;51.954;20.118;2023-06-22T17:26:21;3.10;;;2.80;;
35847;SDS011;22332;51.954;20.118;2023-06-22T17:29:29;3.20;;;2.90;;
35847;SDS011;22332;51.954;20.118;2023-06-22T17:32:35;4.90;;;2.90;;
35847;SDS011;22332;51.954;20.118;2023-06-22T17:35:47;4.40;;;3.50;;
35847;SDS011;22332;51.954;20.118;2023-06-22T17:38:57;5.00;;;3.70;;
35847;SDS011;22332;51.954;20.118;2023-06-22T17:42:04;5.10;;;3.10;;
35847;SDS011;22332;51.954;20.118;2023-06-22T17:45:19;3.80;;;3.20;;
35847;SDS011;22332;51.954;20.118;2023-06-22T17:48:25;4.70;;;3.10;;
35847;SDS011;22332;51.954;20.118;2023-06-22T17:51:33;3.80;;;3.00;;
35847;SDS011;22332;51.954;20.118;2023-06-22T17:54:39;3.30;;;3.00;;
35847;SDS011;22332;51.954;20.118;2023-06-22T17:57:44;3.70;;;2.80;;
35847;SDS011;22332;51.954;20.118;2023-06-22T18:00:53;4.90;;;3.30;;
35847;SDS011;22332;51.954;20.118;2023-06-22T18:03:58;3.40;;;3.10;;
35847;SDS011;22332;51.954;20.118;2023-06-22T18:07:05;3.10;;;2.80;;
35847;SDS011;22332;51.954;20.118;2023-06-22T18:10:12;4.00;;;3.20;;
35847;SDS011;22332;51.954;20.118;2023-06-22T18:13:17;3.50;;;3.20;;
35847;SDS011;22332;51.954;20.118;2023-06-22T18:16:23;4.70;;;3.30;;
35847;SDS011;22332;51.954;20.118;2023-06-22T18:19:30;3.90;;;3.50;;